createdAt,value
2022-12-28T00:02:17.759Z,3.53
2022-12-28T00:04:46.403Z,3.55
2022-12-28T00:07:14.789Z,3.53
2022-12-28T00:09:44.595Z,3.55
2022-12-28T00:12:13.119Z,3.58
2022-12-28T00:14:41.627Z,3.54
2022-12-28T00:17:10.243Z,3.55
2022-12-28T00:19:38.642Z,3.56
2022-12-28T00:22:07.008Z,3.55
2022-12-28T00:24:35.878Z,3.58
2022-12-28T00:27:05.697Z,3.60
2022-12-28T00:29:34.276Z,3.61
2022-12-28T00:32:02.768Z,3.69
2022-12-28T00:34:31.160Z,3.69
2022-12-28T00:37:10.050Z,3.68
2022-12-28T00:39:41.962Z,3.73
2022-12-28T00:42:12.301Z,3.68
2022-12-28T00:44:41.082Z,3.73
2022-12-28T00:47:09.505Z,3.72
2022-12-28T00:49:37.952Z,3.72
2022-12-28T00:52:06.507Z,3.78
2022-12-28T00:54:35.063Z,3.83
2022-12-28T00:57:03.437Z,3.85
2022-12-28T00:59:33.139Z,3.92
2022-12-28T01:02:01.600Z,3.91
2022-12-28T01:04:30.335Z,3.94
2022-12-28T01:06:58.697Z,3.93
2022-12-28T01:09:27.119Z,3.95
2022-12-28T01:11:55.495Z,4.05
2022-12-28T01:14:23.929Z,4.07
2022-12-28T01:16:53.735Z,4.07
2022-12-28T01:19:23.843Z,4.07
2022-12-28T01:21:53.034Z,4.15
2022-12-28T01:24:21.601Z,4.20
2022-12-28T01:26:49.958Z,4.19
2022-12-28T01:29:18.357Z,4.17
2022-12-28T01:31:46.726Z,4.18
2022-12-28T01:34:16.451Z,4.11
2022-12-28T01:36:44.825Z,4.13
2022-12-28T01:39:13.200Z,4.10
2022-12-28T01:41:43.863Z,4.13
2022-12-28T01:44:47.325Z,4.11
2022-12-28T01:47:23.250Z,4.16
2022-12-28T01:50:10.106Z,4.09
2022-12-28T01:52:42.923Z,4.10
2022-12-28T01:55:15.779Z,4.06
2022-12-28T01:57:48.252Z,3.99
2022-12-28T02:00:18.483Z,3.94
2022-12-28T02:02:51.550Z,3.91
2022-12-28T02:05:25.347Z,3.92
2022-12-28T02:07:59.823Z,3.92
2022-12-28T02:10:42.837Z,3.94
2022-12-28T02:13:14.271Z,3.86
2022-12-28T02:15:42.834Z,3.81
2022-12-28T02:18:13.253Z,3.77
2022-12-28T02:20:56.206Z,3.81
2022-12-28T02:23:39.989Z,3.76
2022-12-28T02:26:55.866Z,3.73
2022-12-28T02:29:43.441Z,3.71
2022-12-28T02:32:32.794Z,3.68
2022-12-28T02:35:08.209Z,3.75
2022-12-28T02:37:43.430Z,3.67
2022-12-28T02:40:16.612Z,3.67
2022-12-28T02:42:46.053Z,3.67
2022-12-28T02:45:54.019Z,3.63
2022-12-28T02:48:40.376Z,3.59
2022-12-28T02:51:46.232Z,3.63
2022-12-28T02:54:58.070Z,3.52
2022-12-28T02:57:43.572Z,3.47
2022-12-28T03:00:15.650Z,3.46
2022-12-28T03:02:57.229Z,3.43
2022-12-28T03:05:53.776Z,3.39
2022-12-28T03:08:31.699Z,3.37
2022-12-28T03:11:05.300Z,3.35
2022-12-28T03:13:45.499Z,3.29
2022-12-28T03:16:19.721Z,3.28
2022-12-28T03:19:14.444Z,3.26
2022-12-28T03:22:01.086Z,3.31
2022-12-28T03:24:50.442Z,3.35
2022-12-28T03:27:38.235Z,3.34
2022-12-28T03:30:29.410Z,3.31
2022-12-28T03:32:57.939Z,3.27
2022-12-28T03:35:36.505Z,3.25
2022-12-28T03:38:05.827Z,3.20
2022-12-28T03:40:40.746Z,3.19
2022-12-28T03:43:33.463Z,3.13
2022-12-28T03:46:05.949Z,3.14
2022-12-28T03:48:37.408Z,3.14
2022-12-28T03:51:07.424Z,3.10
2022-12-28T03:53:41.379Z,3.09
2022-12-28T03:56:12.046Z,3.08
2022-12-28T03:58:40.609Z,3.08
2022-12-28T04:01:09.532Z,3.06
2022-12-28T04:03:38.425Z,3.07
2022-12-28T04:06:09.033Z,3.06
2022-12-28T04:08:37.393Z,3.06
2022-12-28T04:11:06.123Z,3.11
2022-12-28T04:13:34.901Z,3.05
2022-12-28T04:16:05.600Z,2.99
2022-12-28T04:18:35.251Z,3.08
2022-12-28T04:21:04.538Z,3.02
2022-12-28T04:23:34.734Z,3.00
2022-12-28T04:26:05.495Z,2.97
2022-12-28T04:28:34.833Z,2.93
2022-12-28T04:31:04.145Z,2.95
2022-12-28T04:33:34.246Z,2.96
2022-12-28T04:36:06.741Z,3.08
2022-12-28T04:38:37.233Z,3.01
2022-12-28T04:41:06.781Z,2.98
2022-12-28T04:43:35.604Z,3.01
2022-12-28T04:46:06.926Z,3.05
2022-12-28T04:48:35.529Z,3.00
2022-12-28T04:51:07.934Z,3.01
2022-12-28T04:53:39.529Z,3.04
2022-12-28T04:56:09.693Z,2.98
2022-12-28T04:58:38.647Z,2.96
2022-12-28T05:01:07.992Z,3.00
2022-12-28T05:03:36.858Z,3.05
2022-12-28T05:06:06.655Z,3.00
2022-12-28T05:08:36.441Z,3.04
2022-12-28T05:11:08.671Z,3.14
2022-12-28T05:13:37.260Z,3.09
2022-12-28T05:16:08.588Z,3.12
2022-12-28T05:18:37.499Z,3.14
2022-12-28T05:21:08.337Z,3.17
2022-12-28T05:23:38.271Z,3.19
2022-12-28T05:26:10.506Z,3.16
2022-12-28T05:28:39.396Z,3.10
2022-12-28T05:31:12.105Z,3.16
2022-12-28T05:33:41.129Z,3.15
2022-12-28T05:36:11.767Z,3.16
2022-12-28T05:38:40.789Z,3.18
2022-12-28T05:41:13.696Z,3.16
2022-12-28T05:43:42.625Z,3.16
2022-12-28T05:46:13.458Z,3.21
2022-12-28T05:48:43.889Z,3.17
2022-12-28T05:51:13.641Z,3.14
2022-12-28T05:53:42.960Z,3.14
2022-12-28T05:56:15.042Z,3.19
2022-12-28T05:58:44.639Z,3.17
2022-12-28T06:01:14.997Z,3.20
2022-12-28T06:03:43.916Z,3.18
2022-12-28T06:06:14.046Z,3.24
2022-12-28T06:08:43.370Z,3.22
2022-12-28T06:11:15.176Z,3.24
2022-12-28T06:13:43.910Z,3.23
2022-12-28T06:16:14.891Z,3.33
2022-12-28T06:18:44.187Z,3.36
2022-12-28T06:21:14.574Z,3.42
2022-12-28T06:23:43.961Z,3.37
2022-12-28T06:26:15.821Z,3.42
2022-12-28T06:28:44.414Z,3.39
2022-12-28T06:31:16.603Z,3.43
2022-12-28T06:33:45.586Z,3.45
2022-12-28T06:36:19.959Z,3.47
2022-12-28T06:38:49.898Z,3.50
2022-12-28T06:41:21.818Z,3.62
2022-12-28T06:43:51.509Z,3.68
2022-12-28T06:46:21.541Z,3.64
2022-12-28T06:48:50.526Z,3.60
2022-12-28T06:51:20.691Z,3.56
2022-12-28T06:53:50.730Z,3.60
2022-12-28T06:56:22.493Z,3.57
2022-12-28T06:58:55.701Z,3.56
2022-12-28T07:01:31.008Z,3.53
2022-12-28T07:04:01.277Z,3.51
2022-12-28T07:06:30.901Z,3.48
2022-12-28T07:09:00.459Z,3.50
2022-12-28T07:11:31.299Z,3.49
2022-12-28T07:14:00.084Z,3.45
2022-12-28T07:19:01.135Z,3.53
2022-12-28T07:21:31.547Z,3.47
2022-12-28T07:24:00.207Z,3.55
2022-12-28T07:26:32.184Z,3.52
2022-12-28T07:29:04.031Z,3.57
2022-12-28T07:31:38.373Z,3.57
2022-12-28T07:34:10.223Z,3.57
2022-12-28T07:36:38.758Z,3.66
2022-12-28T07:39:07.090Z,3.65
2022-12-28T07:41:37.074Z,3.68
2022-12-28T07:44:05.728Z,3.69
2022-12-28T07:46:36.850Z,3.75
2022-12-28T07:49:05.654Z,3.75
2022-12-28T07:51:35.961Z,3.78
2022-12-28T07:54:05.845Z,3.72
2022-12-28T07:59:04.892Z,3.75
2022-12-28T08:01:35.311Z,3.75
2022-12-28T08:04:06.099Z,3.73
2022-12-28T08:06:36.612Z,3.77
2022-12-28T08:09:07.340Z,3.85
2022-12-28T08:11:37.937Z,3.81
2022-12-28T08:14:09.024Z,3.78
2022-12-28T08:16:39.645Z,3.91
2022-12-28T08:19:08.719Z,3.89
2022-12-28T08:21:40.904Z,3.87
2022-12-28T08:24:10.842Z,3.96
2022-12-28T08:26:40.745Z,3.92
2022-12-28T08:29:13.623Z,4.02
2022-12-28T08:31:43.701Z,3.98
2022-12-28T08:34:15.356Z,4.03
2022-12-28T08:36:43.891Z,4.03
2022-12-28T08:39:12.365Z,4.08
2022-12-28T08:41:40.926Z,4.15
2022-12-28T08:44:10.796Z,4.19
2022-12-28T08:46:40.842Z,4.16
2022-12-28T08:49:09.435Z,4.18
2022-12-28T08:51:41.480Z,4.30
2022-12-28T08:54:11.170Z,4.32
2022-12-28T08:56:41.283Z,4.37
2022-12-28T08:59:15.386Z,4.39
2022-12-28T09:01:44.991Z,4.46
2022-12-28T09:04:16.296Z,4.50
2022-12-28T09:06:45.531Z,4.56
2022-12-28T09:09:15.705Z,4.60
2022-12-28T09:11:45.106Z,4.58
2022-12-28T09:14:24.425Z,4.66
2022-12-28T09:16:53.769Z,4.79
2022-12-28T09:19:23.232Z,4.75
2022-12-28T09:21:53.752Z,4.76
2022-12-28T09:24:22.930Z,4.76
2022-12-28T09:26:54.541Z,4.77
2022-12-28T09:29:24.936Z,4.81
2022-12-28T09:31:53.329Z,4.79
2022-12-28T09:34:38.198Z,4.89
2022-12-28T09:37:07.774Z,4.88
2022-12-28T09:39:36.497Z,4.90
2022-12-28T09:42:10.403Z,4.95
2022-12-28T09:44:56.117Z,5.00
2022-12-28T09:47:31.567Z,5.06
2022-12-28T09:50:29.817Z,5.03
2022-12-28T09:53:22.853Z,5.13
2022-12-28T09:56:24.421Z,5.11
2022-12-28T09:58:53.272Z,5.17
2022-12-28T10:01:24.406Z,5.23
2022-12-28T10:03:53.229Z,5.24
2022-12-28T10:06:24.071Z,5.21
2022-12-28T10:08:54.630Z,5.33
2022-12-28T10:11:26.354Z,5.46
2022-12-28T10:13:56.951Z,5.39
2022-12-28T10:16:29.448Z,5.40
2022-12-28T10:18:58.174Z,5.39
2022-12-28T10:21:32.976Z,5.39
2022-12-28T10:24:30.843Z,5.46
2022-12-28T10:26:56.798Z,5.56
2022-12-28T10:29:26.451Z,5.59
2022-12-28T10:32:01.779Z,5.60
2022-12-28T10:34:35.042Z,5.63
2022-12-28T10:40:04.791Z,5.66
2022-12-28T10:42:38.349Z,5.71
2022-12-28T10:45:17.392Z,5.74
2022-12-28T10:47:49.813Z,5.72
2022-12-28T10:50:41.741Z,5.69
2022-12-28T10:53:18.994Z,5.68
2022-12-28T10:55:47.601Z,5.74
2022-12-28T10:58:30.303Z,5.79
2022-12-28T11:01:02.070Z,5.87
2022-12-28T11:03:20.592Z,5.67
2022-12-28T11:03:35.350Z,5.87
2022-12-28T11:06:12.767Z,5.89
2022-12-28T11:08:42.631Z,5.94
2022-12-28T11:11:19.770Z,6.05
2022-12-28T11:13:53.255Z,6.08
2022-12-28T11:16:22.210Z,6.14
2022-12-28T11:18:52.265Z,6.20
2022-12-28T11:21:23.150Z,6.20
2022-12-28T11:23:53.194Z,6.28
2022-12-28T11:26:22.754Z,6.33
2022-12-28T11:28:52.925Z,6.33
2022-12-28T11:31:28.803Z,6.40
2022-12-28T11:34:03.382Z,6.46
2022-12-28T11:36:34.512Z,6.44
2022-12-28T11:39:37.731Z,6.45
2022-12-28T11:44:54.911Z,6.61
2022-12-28T11:47:32.947Z,6.71
2022-12-28T11:50:49.874Z,6.77
2022-12-28T11:53:37.078Z,6.80
2022-12-28T11:56:08.637Z,6.84
2022-12-28T11:59:15.347Z,6.84
2022-12-28T12:01:54.815Z,6.94
2022-12-28T12:04:42.346Z,6.93
2022-12-28T12:07:46.237Z,7.01
2022-12-28T12:10:38.863Z,7.05
2022-12-28T12:13:42.524Z,6.97
2022-12-28T12:16:22.020Z,6.99
2022-12-28T12:18:52.904Z,7.02
2022-12-28T12:21:34.394Z,7.07
2022-12-28T12:24:14.126Z,7.13
2022-12-28T12:26:50.190Z,7.09
2022-12-28T12:29:22.520Z,7.21
2022-12-28T12:32:00.577Z,7.31
2022-12-28T12:34:40.135Z,7.32
2022-12-28T12:37:45.160Z,7.38
2022-12-28T12:40:59.186Z,7.44
2022-12-28T12:43:37.026Z,7.50
2022-12-28T12:46:25.900Z,7.47
2022-12-28T12:49:19.563Z,7.53
2022-12-28T12:52:00.575Z,7.62
2022-12-28T12:54:41.127Z,7.58
2022-12-28T12:57:16.694Z,7.55
2022-12-28T13:00:01.852Z,7.66
2022-12-28T13:02:53.973Z,7.71
2022-12-28T13:05:25.311Z,7.73
2022-12-28T13:07:56.610Z,7.85
2022-12-28T13:10:31.239Z,7.96
2022-12-28T13:13:01.377Z,8.11
2022-12-28T13:15:32.351Z,8.13
2022-12-28T13:18:34.435Z,8.17
2022-12-28T13:20:57.289Z,8.29
2022-12-28T13:23:26.687Z,8.32
2022-12-28T13:25:57.845Z,8.30
2022-12-28T13:28:30.714Z,8.31
2022-12-28T13:31:07.162Z,8.40
2022-12-28T13:33:35.738Z,8.37
2022-12-28T13:36:14.533Z,8.32
2022-12-28T13:38:43.056Z,8.44
2022-12-28T13:41:22.312Z,8.42
2022-12-28T13:44:14.925Z,8.42
2022-12-28T13:46:50.269Z,8.43
2022-12-28T13:49:21.289Z,8.46
2022-12-28T13:51:53.441Z,8.35
2022-12-28T13:54:25.112Z,8.26
2022-12-28T13:57:14.660Z,8.26
2022-12-28T13:59:47.355Z,8.16
2022-12-28T14:02:20.895Z,8.01
2022-12-28T14:04:53.417Z,7.93
2022-12-28T14:07:25.923Z,7.92
2022-12-28T14:09:55.062Z,7.98
2022-12-28T14:12:24.003Z,7.93
2022-12-28T14:14:52.977Z,7.82
2022-12-28T14:17:24.035Z,7.83
2022-12-28T14:19:54.923Z,7.77
2022-12-28T14:22:29.148Z,7.81
2022-12-28T14:25:05.891Z,7.73
2022-12-28T14:27:36.947Z,7.73
2022-12-28T14:30:07.493Z,7.74
2022-12-28T14:35:28.519Z,7.69
2022-12-28T14:37:59.509Z,7.64
2022-12-28T14:40:31.376Z,7.58
2022-12-28T14:43:02.582Z,7.56
2022-12-28T14:46:05.234Z,7.55
2022-12-28T14:48:37.368Z,7.55
2022-12-28T14:51:24.372Z,7.50
2022-12-28T14:54:16.878Z,7.44
2022-12-28T14:56:49.930Z,7.40
2022-12-28T14:59:24.232Z,7.33
2022-12-28T15:01:52.765Z,7.34
2022-12-28T15:04:37.079Z,7.39
2022-12-28T15:07:06.823Z,7.35
2022-12-28T15:09:35.661Z,7.43
2022-12-28T15:12:12.187Z,7.49
2022-12-28T15:14:40.925Z,7.44
2022-12-28T15:17:10.211Z,7.41
2022-12-28T15:19:40.533Z,7.42
2022-12-28T15:22:09.479Z,7.44
2022-12-28T15:24:38.851Z,7.42
2022-12-28T15:27:07.290Z,7.39
2022-12-28T15:32:24.208Z,7.40
2022-12-28T15:34:54.793Z,7.35
2022-12-28T15:37:23.535Z,7.34
2022-12-28T15:39:51.964Z,7.31
2022-12-28T15:42:20.349Z,7.25
2022-12-28T15:44:51.129Z,7.19
2022-12-28T15:47:19.723Z,7.25
2022-12-28T15:49:48.108Z,7.23
2022-12-28T15:52:18.024Z,7.19
2022-12-28T15:54:47.450Z,7.19
2022-12-28T15:57:16.243Z,7.18
2022-12-28T15:59:44.591Z,7.22
2022-12-28T16:02:13.645Z,7.20
2022-12-28T16:04:42.133Z,7.22
2022-12-28T16:07:11.074Z,7.22
2022-12-28T16:09:40.863Z,7.29
2022-12-28T16:12:09.536Z,7.24
2022-12-28T16:14:38.032Z,7.24
2022-12-28T16:17:06.434Z,7.25
2022-12-28T16:19:34.827Z,7.28
2022-12-28T16:22:03.298Z,7.27
2022-12-28T16:24:31.737Z,7.30
2022-12-28T16:27:01.574Z,7.34
2022-12-28T16:29:29.940Z,7.42
2022-12-28T16:32:00.559Z,7.46
2022-12-28T16:34:29.723Z,7.44
2022-12-28T16:36:59.418Z,7.42
2022-12-28T16:39:29.706Z,7.42
2022-12-28T16:41:58.731Z,7.50
2022-12-28T16:44:29.540Z,7.40
2022-12-28T16:46:59.640Z,7.41
2022-12-28T16:49:29.561Z,7.42
2022-12-28T16:51:58.616Z,7.46
2022-12-28T16:54:28.347Z,7.47
2022-12-28T16:56:57.522Z,7.53
2022-12-28T16:59:29.264Z,7.52
2022-12-28T17:01:59.298Z,7.59
2022-12-28T17:04:28.342Z,7.59
2022-12-28T17:06:56.721Z,7.58
2022-12-28T17:09:25.134Z,7.56
2022-12-28T17:11:53.528Z,7.68
2022-12-28T17:14:36.332Z,7.63
2022-12-28T17:17:08.264Z,7.53
2022-12-28T17:19:37.163Z,7.59
2022-12-28T17:22:06.373Z,7.63
2022-12-28T17:24:34.845Z,7.54
2022-12-28T17:27:08.192Z,7.46
2022-12-28T17:29:38.646Z,7.30
2022-12-28T17:32:08.654Z,7.36
2022-12-28T17:34:37.489Z,7.30
2022-12-28T17:37:06.367Z,7.24
2022-12-28T17:39:40.207Z,7.31
2022-12-28T17:42:09.348Z,7.23
2022-12-28T17:44:37.656Z,7.29
2022-12-28T17:47:06.195Z,7.24
2022-12-28T17:49:35.964Z,7.20
2022-12-28T17:52:04.459Z,7.28
2022-12-28T17:54:32.969Z,7.31
2022-12-28T17:57:01.455Z,7.31
2022-12-28T17:59:29.904Z,7.30
2022-12-28T18:02:00.151Z,7.30
2022-12-28T18:04:29.008Z,7.28
2022-12-28T18:06:58.777Z,7.35
2022-12-28T18:09:28.077Z,7.34
2022-12-28T18:11:56.885Z,7.38
2022-12-28T18:14:25.513Z,7.37
2022-12-28T18:16:54.079Z,7.43
2022-12-28T18:19:22.842Z,7.47
2022-12-28T18:21:51.264Z,7.45
2022-12-28T18:24:21.281Z,7.43
2022-12-28T18:26:49.903Z,7.35
2022-12-28T18:29:18.275Z,7.30
2022-12-28T18:31:46.760Z,7.35
2022-12-28T18:34:15.519Z,7.34
2022-12-28T18:36:43.925Z,7.44
2022-12-28T18:39:12.476Z,7.47
2022-12-28T18:41:42.169Z,7.45
2022-12-28T18:44:10.692Z,7.55
2022-12-28T18:46:39.046Z,7.62
2022-12-28T18:49:07.433Z,7.56
2022-12-28T18:51:36.508Z,7.54
2022-12-28T18:54:05.620Z,7.57
2022-12-28T18:56:34.005Z,7.50
2022-12-28T18:59:03.958Z,7.48
2022-12-28T19:02:05.280Z,7.58
2022-12-28T19:04:21.694Z,7.53
2022-12-28T19:06:50.226Z,7.49
2022-12-28T19:09:18.783Z,7.42
2022-12-28T19:11:48.182Z,7.42
2022-12-28T19:14:18.119Z,7.48
2022-12-28T19:16:46.615Z,7.41
2022-12-28T19:19:16.945Z,7.41
2022-12-28T19:21:45.705Z,7.41
2022-12-28T19:24:16.179Z,7.41
2022-12-28T19:26:45.712Z,7.42
2022-12-28T19:29:16.630Z,7.36
2022-12-28T19:31:46.432Z,7.30
2022-12-28T19:34:15.763Z,7.31
2022-12-28T19:36:44.110Z,7.19
2022-12-28T19:39:12.487Z,7.11
2022-12-28T19:41:40.944Z,7.08
2022-12-28T19:44:09.332Z,7.02
2022-12-28T19:46:37.954Z,7.00
2022-12-28T19:49:12.627Z,7.01
2022-12-28T19:51:41.931Z,7.00
2022-12-28T19:54:12.399Z,6.97
2022-12-28T19:56:40.768Z,6.86
2022-12-28T19:59:09.183Z,6.82
2022-12-28T20:01:39.077Z,6.75
2022-12-28T20:04:13.596Z,6.70
2022-12-28T20:06:44.978Z,6.66
2022-12-28T20:09:14.326Z,6.65
2022-12-28T20:11:44.923Z,6.60
2022-12-28T20:14:18.115Z,6.58
2022-12-28T20:16:51.816Z,6.63
2022-12-28T20:19:20.192Z,6.62
2022-12-28T20:21:50.436Z,6.63
2022-12-28T20:24:21.547Z,6.64
2022-12-28T20:26:49.963Z,6.66
2022-12-28T20:29:18.496Z,6.67
2022-12-28T20:31:46.979Z,6.62
2022-12-28T20:34:15.397Z,6.64
2022-12-28T20:36:43.769Z,6.62
2022-12-28T20:39:13.571Z,6.60
2022-12-28T20:41:59.296Z,6.60
2022-12-28T20:44:31.230Z,6.58
2022-12-28T20:47:00.475Z,6.59
2022-12-28T20:49:29.434Z,6.55
2022-12-28T20:51:57.781Z,6.51
2022-12-28T20:54:27.712Z,6.53
2022-12-28T20:56:56.502Z,6.51
2022-12-28T20:59:26.185Z,6.51
2022-12-28T21:01:55.225Z,6.54
2022-12-28T21:04:24.967Z,6.53
2022-12-28T21:06:54.470Z,6.52
2022-12-28T21:09:22.942Z,6.55
2022-12-28T21:11:52.906Z,6.58
2022-12-28T21:14:21.518Z,6.61
2022-12-28T21:16:50.086Z,6.65
2022-12-28T21:19:18.575Z,6.66
2022-12-28T21:21:48.528Z,6.65
2022-12-28T21:24:16.938Z,6.65
2022-12-28T21:26:45.605Z,6.62
2022-12-28T21:29:20.461Z,6.64
2022-12-28T21:31:52.594Z,6.67
2022-12-28T21:34:21.061Z,6.65
2022-12-28T21:36:49.398Z,6.61
2022-12-28T21:39:17.824Z,6.63
2022-12-28T21:41:52.792Z,6.67
2022-12-28T21:44:24.459Z,6.68
2022-12-28T21:46:54.301Z,6.75
2022-12-28T21:49:22.772Z,6.73
2022-12-28T21:51:51.708Z,6.77
2022-12-28T21:54:21.601Z,6.79
2022-12-28T21:56:52.509Z,6.82
2022-12-28T21:59:23.783Z,6.88
2022-12-28T22:02:10.398Z,6.87
2022-12-28T22:05:02.253Z,6.90
2022-12-28T22:07:31.918Z,6.98
2022-12-28T22:10:17.747Z,6.99
2022-12-28T22:12:46.295Z,6.99
2022-12-28T22:15:35.600Z,7.05
2022-12-28T22:18:06.208Z,7.10
2022-12-28T22:20:35.689Z,7.12
2022-12-28T22:23:04.171Z,7.08
2022-12-28T22:25:32.679Z,7.07
2022-12-28T22:28:01.563Z,7.13
2022-12-28T22:30:32.060Z,7.18
2022-12-28T22:33:00.504Z,7.18
2022-12-28T22:35:29.087Z,7.18
2022-12-28T22:37:57.576Z,7.16
2022-12-28T22:40:26.291Z,7.18
2022-12-28T22:42:54.680Z,7.25
2022-12-28T22:45:24.931Z,7.31
2022-12-28T22:47:59.252Z,7.39
2022-12-28T22:50:28.296Z,7.33
2022-12-28T22:52:56.705Z,7.40
2022-12-28T22:55:25.050Z,7.47
2022-12-28T22:57:53.472Z,7.44
2022-12-28T23:00:21.903Z,7.52
2022-12-28T23:02:50.474Z,7.47
2022-12-28T23:05:20.388Z,7.52
2022-12-28T23:07:48.774Z,7.55
2022-12-28T23:10:17.300Z,7.50
2022-12-28T23:12:45.750Z,7.51
2022-12-28T23:15:16.166Z,7.47
2022-12-28T23:17:44.549Z,7.41
2022-12-28T23:20:30.988Z,7.42
2022-12-28T23:23:26.259Z,7.48
2022-12-28T23:26:11.462Z,7.51
2022-12-28T23:28:39.807Z,7.53
2022-12-28T23:31:08.254Z,7.54
2022-12-28T23:33:37.167Z,7.59
2022-12-28T23:36:05.984Z,7.54
2022-12-28T23:38:35.812Z,7.52
2022-12-28T23:41:24.602Z,7.48
2022-12-28T23:43:53.078Z,7.50
2022-12-28T23:46:21.498Z,7.39
2022-12-28T23:48:49.937Z,7.39
2022-12-28T23:51:18.281Z,7.37
2022-12-28T23:53:47.966Z,7.41
2022-12-28T23:56:16.376Z,7.35
2022-12-28T23:58:44.698Z,7.32
